sensor_id;sensor_type;location;lat;lon;timestamp;pressure;altitude;pressure_sealevel;temperature;humidity
4981;BME280;2507;50.392;7.482;2023-02-01T00:02:25;101320.47;;;8.38;73.12
4981;BME280;2507;50.392;7.482;2023-02-01T00:04:50;101315.75;;;8.27;73.45
4981;BME280;2507;50.392;7.482;2023-02-01T00:07:15;101323.03;;;8.21;73.42
4981;BME280;2507;50.392;7.482;2023-02-01T00:09:40;101331.16;;;8.15;73.72
4981;BME280;2507;50.392;7.482;2023-02-01T00:12:06;101322.91;;;8.24;73.15
4981;BME280;2507;50.392;7.482;2023-02-01T00:14:31;101311.38;;;8.28;73.17
4981;BME280;2507;50.392;7.482;2023-02-01T00:17:04;101309.44;;;8.32;73.45
4981;BME280;2507;50.392;7.482;2023-02-01T00:19:29;101298.00;;;8.34;73.05
4981;BME280;2507;50.392;7.482;2023-02-01T00:21:54;101292.59;;;8.37;73.17
4981;BME280;2507;50.392;7.482;2023-02-01T00:24:20;101297.75;;;8.39;72.56
4981;BME280;2507;50.392;7.482;2023-02-01T00:26:45;101298.69;;;8.38;73.21
4981;BME280;2507;50.392;7.482;2023-02-01T00:29:15;101295.53;;;8.31;73.53
4981;BME280;2507;50.392;7.482;2023-02-01T00:31:42;101302.91;;;8.40;73.60
4981;BME280;2507;50.392;7.482;2023-02-01T00:34:11;101311.06;;;8.34;73.56
4981;BME280;2507;50.392;7.482;2023-02-01T00:36:37;101311.28;;;8.30;73.66
4981;BME280;2507;50.392;7.482;2023-02-01T00:39:02;101314.38;;;8.38;73.86
4981;BME280;2507;50.392;7.482;2023-02-01T00:41:27;101317.09;;;8.36;74.29
4981;BME280;2507;50.392;7.482;2023-02-01T00:43:53;101319.63;;;8.38;74.27
4981;BME280;2507;50.392;7.482;2023-02-01T00:46:19;101313.69;;;8.34;74.47
4981;BME280;2507;50.392;7.482;2023-02-01T00:48:44;101303.25;;;8.34;74.61
4981;BME280;2507;50.392;7.482;2023-02-01T00:51:12;101312.91;;;8.32;74.89
4981;BME280;2507;50.392;7.482;2023-02-01T00:53:38;101310.59;;;8.26;75.12
4981;BME280;2507;50.392;7.482;2023-02-01T00:56:04;101315.53;;;8.32;74.85
4981;BME280;2507;50.392;7.482;2023-02-01T00:58:31;101302.97;;;8.21;75.24
4981;BME280;2507;50.392;7.482;2023-02-01T01:03:34;101307.00;;;8.29;74.88
4981;BME280;2507;50.392;7.482;2023-02-01T01:06:01;101311.81;;;8.19;75.32
4981;BME280;2507;50.392;7.482;2023-02-01T01:08:27;101305.88;;;8.15;75.49
4981;BME280;2507;50.392;7.482;2023-02-01T01:10:53;101304.09;;;7.99;76.51
4981;BME280;2507;50.392;7.482;2023-02-01T01:13:18;101307.41;;;8.02;76.47
4981;BME280;2507;50.392;7.482;2023-02-01T01:15:44;101305.72;;;8.01;76.64
4981;BME280;2507;50.392;7.482;2023-02-01T01:18:09;101309.16;;;8.02;77.20
4981;BME280;2507;50.392;7.482;2023-02-01T01:20:36;101306.41;;;8.05;76.46
4981;BME280;2507;50.392;7.482;2023-02-01T01:23:02;101314.56;;;8.16;76.10
4981;BME280;2507;50.392;7.482;2023-02-01T01:25:27;101309.63;;;8.29;75.41
4981;BME280;2507;50.392;7.482;2023-02-01T01:27:53;101314.97;;;8.25;75.26
4981;BME280;2507;50.392;7.482;2023-02-01T01:30:18;101309.03;;;8.22;75.26
4981;BME280;2507;50.392;7.482;2023-02-01T01:32:43;101307.50;;;8.18;75.69
4981;BME280;2507;50.392;7.482;2023-02-01T01:35:10;101312.88;;;8.15;75.49
4981;BME280;2507;50.392;7.482;2023-02-01T01:37:36;101300.16;;;8.26;74.91
4981;BME280;2507;50.392;7.482;2023-02-01T01:40:03;101293.94;;;8.29;74.56
4981;BME280;2507;50.392;7.482;2023-02-01T01:42:28;101289.47;;;8.31;74.57
4981;BME280;2507;50.392;7.482;2023-02-01T01:45:30;101274.22;;;8.39;73.98
4981;BME280;2507;50.392;7.482;2023-02-01T01:48:13;101274.13;;;8.40;73.48
4981;BME280;2507;50.392;7.482;2023-02-01T01:50:44;101277.13;;;8.50;73.01
4981;BME280;2507;50.392;7.482;2023-02-01T01:53:16;101277.69;;;8.56;72.96
4981;BME280;2507;50.392;7.482;2023-02-01T01:55:44;101263.06;;;8.52;72.85
4981;BME280;2507;50.392;7.482;2023-02-01T01:58:14;101263.38;;;8.46;73.00
4981;BME280;2507;50.392;7.482;2023-02-01T02:00:41;101267.91;;;8.60;72.12
4981;BME280;2507;50.392;7.482;2023-02-01T02:03:13;101274.31;;;8.54;72.20
4981;BME280;2507;50.392;7.482;2023-02-01T02:05:39;101289.59;;;8.45;72.24
4981;BME280;2507;50.392;7.482;2023-02-01T02:08:04;101278.91;;;8.49;72.05
4981;BME280;2507;50.392;7.482;2023-02-01T02:10:31;101287.69;;;8.48;71.68
4981;BME280;2507;50.392;7.482;2023-02-01T02:13:16;101316.44;;;8.48;71.60
4981;BME280;2507;50.392;7.482;2023-02-01T02:15:48;101284.59;;;8.57;71.15
4981;BME280;2507;50.392;7.482;2023-02-01T02:18:32;101294.19;;;8.57;71.21
4981;BME280;2507;50.392;7.482;2023-02-01T02:26:34;101297.78;;;8.71;70.70
4981;BME280;2507;50.392;7.482;2023-02-01T02:34:37;101283.59;;;8.60;71.55
4981;BME280;2507;50.392;7.482;2023-02-01T02:37:14;101273.13;;;8.60;71.21
4981;BME280;2507;50.392;7.482;2023-02-01T02:40:03;101267.97;;;8.58;71.34
4981;BME280;2507;50.392;7.482;2023-02-01T02:42:39;101260.50;;;8.68;71.10
4981;BME280;2507;50.392;7.482;2023-02-01T02:45:38;101259.03;;;8.62;71.38
4981;BME280;2507;50.392;7.482;2023-02-01T02:48:31;101258.44;;;8.57;71.42
4981;BME280;2507;50.392;7.482;2023-02-01T02:51:05;101251.97;;;8.64;71.00
4981;BME280;2507;50.392;7.482;2023-02-01T02:54:05;101259.63;;;8.67;70.54
4981;BME280;2507;50.392;7.482;2023-02-01T02:56:51;101261.56;;;8.64;70.20
4981;BME280;2507;50.392;7.482;2023-02-01T02:59:37;101253.72;;;8.64;70.17
4981;BME280;2507;50.392;7.482;2023-02-01T03:02:21;101257.38;;;8.44;71.05
4981;BME280;2507;50.392;7.482;2023-02-01T03:05:05;101248.94;;;8.39;70.27
4981;BME280;2507;50.392;7.482;2023-02-01T03:07:57;101232.06;;;8.45;69.54
4981;BME280;2507;50.392;7.482;2023-02-01T03:13:24;101254.47;;;8.33;69.90
4981;BME280;2507;50.392;7.482;2023-02-01T03:16:45;101251.47;;;8.41;69.66
4981;BME280;2507;50.392;7.482;2023-02-01T03:19:28;101246.69;;;8.49;68.99
4981;BME280;2507;50.392;7.482;2023-02-01T03:22:11;101237.47;;;8.42;69.61
4981;BME280;2507;50.392;7.482;2023-02-01T03:24:44;101235.69;;;8.42;69.00
4981;BME280;2507;50.392;7.482;2023-02-01T03:27:18;101236.44;;;8.44;68.49
4981;BME280;2507;50.392;7.482;2023-02-01T03:29:56;101246.47;;;8.36;68.44
4981;BME280;2507;50.392;7.482;2023-02-01T03:32:24;101236.41;;;8.29;68.64
4981;BME280;2507;50.392;7.482;2023-02-01T03:34:50;101244.69;;;8.37;69.01
4981;BME280;2507;50.392;7.482;2023-02-01T03:37:23;101236.84;;;8.37;68.78
4981;BME280;2507;50.392;7.482;2023-02-01T03:39:53;101225.47;;;8.38;68.56
4981;BME280;2507;50.392;7.482;2023-02-01T03:42:46;101228.19;;;8.36;67.78
4981;BME280;2507;50.392;7.482;2023-02-01T03:45:18;101224.03;;;8.32;67.87
4981;BME280;2507;50.392;7.482;2023-02-01T03:47:48;101218.88;;;8.31;68.20
4981;BME280;2507;50.392;7.482;2023-02-01T03:50:17;101219.66;;;8.33;68.45
4981;BME280;2507;50.392;7.482;2023-02-01T03:52:47;101214.81;;;8.25;68.23
4981;BME280;2507;50.392;7.482;2023-02-01T03:55:19;101213.94;;;8.24;68.50
4981;BME280;2507;50.392;7.482;2023-02-01T03:57:53;101215.72;;;8.24;68.96
4981;BME280;2507;50.392;7.482;2023-02-01T04:00:24;101226.38;;;8.19;68.68
4981;BME280;2507;50.392;7.482;2023-02-01T04:02:50;101221.84;;;8.23;68.60
4981;BME280;2507;50.392;7.482;2023-02-01T04:05:15;101221.84;;;8.23;68.73
4981;BME280;2507;50.392;7.482;2023-02-01T04:07:41;101224.69;;;8.18;68.61
4981;BME280;2507;50.392;7.482;2023-02-01T04:10:08;101219.44;;;8.18;68.69
4981;BME280;2507;50.392;7.482;2023-02-01T04:12:33;101217.59;;;8.20;67.75
4981;BME280;2507;50.392;7.482;2023-02-01T04:14:58;101237.53;;;8.23;67.75
4981;BME280;2507;50.392;7.482;2023-02-01T04:17:24;101220.09;;;8.23;67.99
4981;BME280;2507;50.392;7.482;2023-02-01T04:19:49;101214.63;;;8.28;67.95
4981;BME280;2507;50.392;7.482;2023-02-01T04:22:14;101218.41;;;8.40;67.55
4981;BME280;2507;50.392;7.482;2023-02-01T04:24:40;101217.56;;;8.39;67.48
4981;BME280;2507;50.392;7.482;2023-02-01T04:27:05;101234.59;;;8.46;67.11
4981;BME280;2507;50.392;7.482;2023-02-01T04:29:30;101231.22;;;8.44;67.20
4981;BME280;2507;50.392;7.482;2023-02-01T04:31:55;101224.53;;;8.39;66.56
4981;BME280;2507;50.392;7.482;2023-02-01T04:34:21;101222.47;;;8.45;66.72
4981;BME280;2507;50.392;7.482;2023-02-01T04:36:47;101225.13;;;8.44;66.86
4981;BME280;2507;50.392;7.482;2023-02-01T04:39:13;101233.75;;;8.46;66.38
4981;BME280;2507;50.392;7.482;2023-02-01T04:41:38;101254.75;;;8.44;66.80
4981;BME280;2507;50.392;7.482;2023-02-01T04:44:03;101237.50;;;8.57;66.08
4981;BME280;2507;50.392;7.482;2023-02-01T04:46:29;101249.81;;;8.55;66.06
4981;BME280;2507;50.392;7.482;2023-02-01T04:48:54;101251.53;;;8.56;65.83
4981;BME280;2507;50.392;7.482;2023-02-01T04:51:19;101228.47;;;8.47;66.01
4981;BME280;2507;50.392;7.482;2023-02-01T04:53:44;101258.06;;;8.48;65.93
4981;BME280;2507;50.392;7.482;2023-02-01T04:56:10;101235.88;;;8.55;65.83
4981;BME280;2507;50.392;7.482;2023-02-01T04:58:35;101247.59;;;8.48;65.60
4981;BME280;2507;50.392;7.482;2023-02-01T05:01:05;101243.31;;;8.47;65.82
4981;BME280;2507;50.392;7.482;2023-02-01T05:03:34;101246.16;;;8.42;66.48
4981;BME280;2507;50.392;7.482;2023-02-01T05:05:59;101252.31;;;8.41;66.58
4981;BME280;2507;50.392;7.482;2023-02-01T05:08:25;101255.84;;;8.40;66.38
4981;BME280;2507;50.392;7.482;2023-02-01T05:10:52;101259.47;;;8.38;66.70
4981;BME280;2507;50.392;7.482;2023-02-01T05:13:17;101255.63;;;8.27;67.33
4981;BME280;2507;50.392;7.482;2023-02-01T05:16:01;101252.53;;;8.19;67.38
4981;BME280;2507;50.392;7.482;2023-02-01T05:18:27;101256.69;;;8.06;67.24
4981;BME280;2507;50.392;7.482;2023-02-01T05:20:52;101243.78;;;8.03;67.65
4981;BME280;2507;50.392;7.482;2023-02-01T05:23:17;101246.19;;;7.89;67.82
4981;BME280;2507;50.392;7.482;2023-02-01T05:25:43;101241.75;;;7.91;67.69
4981;BME280;2507;50.392;7.482;2023-02-01T05:28:08;101239.38;;;7.87;67.39
4981;BME280;2507;50.392;7.482;2023-02-01T05:30:33;101232.13;;;7.75;68.02
4981;BME280;2507;50.392;7.482;2023-02-01T05:33:00;101242.94;;;7.67;67.58
4981;BME280;2507;50.392;7.482;2023-02-01T05:35:26;101230.81;;;7.66;67.43
4981;BME280;2507;50.392;7.482;2023-02-01T05:37:51;101235.50;;;7.60;66.61
4981;BME280;2507;50.392;7.482;2023-02-01T05:40:16;101223.34;;;7.59;66.67
4981;BME280;2507;50.392;7.482;2023-02-01T05:42:42;101208.81;;;7.53;65.96
4981;BME280;2507;50.392;7.482;2023-02-01T05:45:07;101209.44;;;7.58;65.95
4981;BME280;2507;50.392;7.482;2023-02-01T05:47:33;101218.22;;;7.57;66.87
4981;BME280;2507;50.392;7.482;2023-02-01T05:49:58;101208.00;;;7.53;66.78
4981;BME280;2507;50.392;7.482;2023-02-01T05:52:23;101227.47;;;7.46;66.71
4981;BME280;2507;50.392;7.482;2023-02-01T05:54:49;101229.97;;;7.49;65.92
4981;BME280;2507;50.392;7.482;2023-02-01T05:57:14;101237.00;;;7.47;65.50
4981;BME280;2507;50.392;7.482;2023-02-01T05:59:40;101223.34;;;7.42;64.89
4981;BME280;2507;50.392;7.482;2023-02-01T06:02:07;101226.28;;;7.53;64.22
4981;BME280;2507;50.392;7.482;2023-02-01T06:04:32;101238.25;;;7.57;64.33
4981;BME280;2507;50.392;7.482;2023-02-01T06:06:57;101238.84;;;7.45;64.66
4981;BME280;2507;50.392;7.482;2023-02-01T06:09:23;101233.13;;;7.37;64.40
4981;BME280;2507;50.392;7.482;2023-02-01T06:11:48;101235.75;;;7.37;64.27
4981;BME280;2507;50.392;7.482;2023-02-01T06:14:13;101250.59;;;7.53;63.29
4981;BME280;2507;50.392;7.482;2023-02-01T06:16:38;101241.94;;;7.53;63.21
4981;BME280;2507;50.392;7.482;2023-02-01T06:19:04;101229.25;;;7.45;63.44
4981;BME280;2507;50.392;7.482;2023-02-01T06:21:29;101232.56;;;7.49;63.15
4981;BME280;2507;50.392;7.482;2023-02-01T06:23:54;101246.84;;;7.42;63.46
4981;BME280;2507;50.392;7.482;2023-02-01T06:26:20;101223.63;;;7.36;63.55
4981;BME280;2507;50.392;7.482;2023-02-01T06:28:45;101219.88;;;7.41;63.65
4981;BME280;2507;50.392;7.482;2023-02-01T06:31:13;101221.22;;;7.31;63.73
4981;BME280;2507;50.392;7.482;2023-02-01T06:33:39;101224.13;;;7.25;64.07
4981;BME280;2507;50.392;7.482;2023-02-01T06:36:06;101223.56;;;7.18;64.02
4981;BME280;2507;50.392;7.482;2023-02-01T06:38:32;101217.56;;;7.16;63.81
4981;BME280;2507;50.392;7.482;2023-02-01T06:41:00;101214.81;;;7.19;64.00
4981;BME280;2507;50.392;7.482;2023-02-01T06:43:26;101219.91;;;7.22;63.51
4981;BME280;2507;50.392;7.482;2023-02-01T06:45:52;101218.13;;;7.23;63.42
4981;BME280;2507;50.392;7.482;2023-02-01T06:48:18;101212.28;;;7.18;63.81
4981;BME280;2507;50.392;7.482;2023-02-01T06:50:44;101238.94;;;7.06;63.52
4981;BME280;2507;50.392;7.482;2023-02-01T06:53:09;101224.41;;;7.00;64.33
4981;BME280;2507;50.392;7.482;2023-02-01T06:55:35;101232.13;;;7.03;64.43
4981;BME280;2507;50.392;7.482;2023-02-01T06:58:00;101252.91;;;6.86;64.70
4981;BME280;2507;50.392;7.482;2023-02-01T07:00:28;101242.47;;;6.86;64.64
4981;BME280;2507;50.392;7.482;2023-02-01T07:02:54;101245.94;;;6.87;64.55
4981;BME280;2507;50.392;7.482;2023-02-01T07:05:20;101237.41;;;6.83;64.71
4981;BME280;2507;50.392;7.482;2023-02-01T07:07:46;101244.38;;;6.83;64.79
4981;BME280;2507;50.392;7.482;2023-02-01T07:10:11;101250.28;;;6.86;64.79
4981;BME280;2507;50.392;7.482;2023-02-01T07:12:37;101272.34;;;6.79;65.31
4981;BME280;2507;50.392;7.482;2023-02-01T07:15:03;101273.75;;;6.86;65.42
4981;BME280;2507;50.392;7.482;2023-02-01T07:17:28;101272.94;;;7.04;64.86
4981;BME280;2507;50.392;7.482;2023-02-01T07:19:54;101273.50;;;7.11;64.89
4981;BME280;2507;50.392;7.482;2023-02-01T07:22:20;101266.59;;;7.10;64.95
4981;BME280;2507;50.392;7.482;2023-02-01T07:24:45;101271.31;;;7.20;64.65
4981;BME280;2507;50.392;7.482;2023-02-01T07:27:10;101266.00;;;7.22;63.99
4981;BME280;2507;50.392;7.482;2023-02-01T07:29:35;101265.19;;;7.21;63.96
4981;BME280;2507;50.392;7.482;2023-02-01T07:32:01;101271.31;;;7.20;64.72
4981;BME280;2507;50.392;7.482;2023-02-01T07:34:27;101290.00;;;7.30;64.20
4981;BME280;2507;50.392;7.482;2023-02-01T07:36:53;101284.44;;;7.38;63.78
4981;BME280;2507;50.392;7.482;2023-02-01T07:39:18;101284.56;;;7.35;64.28
4981;BME280;2507;50.392;7.482;2023-02-01T07:41:43;101285.22;;;7.40;64.30
4981;BME280;2507;50.392;7.482;2023-02-01T07:44:09;101312.16;;;7.40;64.01
4981;BME280;2507;50.392;7.482;2023-02-01T07:46:35;101299.41;;;7.53;63.82
4981;BME280;2507;50.392;7.482;2023-02-01T07:49:01;101307.34;;;7.68;63.27
4981;BME280;2507;50.392;7.482;2023-02-01T07:51:26;101312.28;;;7.74;62.78
4981;BME280;2507;50.392;7.482;2023-02-01T07:53:52;101321.97;;;7.89;62.79
4981;BME280;2507;50.392;7.482;2023-02-01T07:56:19;101330.31;;;7.97;62.56
4981;BME280;2507;50.392;7.482;2023-02-01T07:58:49;101334.09;;;8.09;62.13
4981;BME280;2507;50.392;7.482;2023-02-01T08:01:17;101328.47;;;7.99;62.38
4981;BME280;2507;50.392;7.482;2023-02-01T08:03:58;101332.69;;;8.02;62.38
4981;BME280;2507;50.392;7.482;2023-02-01T08:06:25;101337.69;;;8.06;62.13
4981;BME280;2507;50.392;7.482;2023-02-01T08:08:51;101335.44;;;7.99;62.67
4981;BME280;2507;50.392;7.482;2023-02-01T08:11:17;101326.06;;;7.95;63.10
4981;BME280;2507;50.392;7.482;2023-02-01T08:13:43;101325.38;;;7.91;62.77
4981;BME280;2507;50.392;7.482;2023-02-01T08:16:13;101324.84;;;8.02;63.00
4981;BME280;2507;50.392;7.482;2023-02-01T08:18:39;101323.47;;;8.12;62.54
4981;BME280;2507;50.392;7.482;2023-02-01T08:21:09;101322.41;;;8.16;62.68
4981;BME280;2507;50.392;7.482;2023-02-01T08:23:35;101314.38;;;8.02;62.82
4981;BME280;2507;50.392;7.482;2023-02-01T08:26:13;101319.72;;;8.17;62.58
4981;BME280;2507;50.392;7.482;2023-02-01T08:28:41;101318.94;;;8.15;62.34
4981;BME280;2507;50.392;7.482;2023-02-01T08:31:10;101313.56;;;8.18;61.93
4981;BME280;2507;50.392;7.482;2023-02-01T08:33:36;101321.41;;;8.18;61.59
4981;BME280;2507;50.392;7.482;2023-02-01T08:36:03;101320.50;;;8.19;60.81
4981;BME280;2507;50.392;7.482;2023-02-01T08:38:29;101318.06;;;8.34;60.83
4981;BME280;2507;50.392;7.482;2023-02-01T08:40:55;101323.81;;;8.40;60.58
4981;BME280;2507;50.392;7.482;2023-02-01T08:43:20;101323.22;;;8.35;60.22
4981;BME280;2507;50.392;7.482;2023-02-01T08:45:45;101322.75;;;8.44;60.76
4981;BME280;2507;50.392;7.482;2023-02-01T08:48:11;101321.84;;;8.45;60.13
4981;BME280;2507;50.392;7.482;2023-02-01T08:50:36;101327.06;;;8.45;60.61
4981;BME280;2507;50.392;7.482;2023-02-01T08:53:01;101332.06;;;8.50;60.95
4981;BME280;2507;50.392;7.482;2023-02-01T08:55:27;101334.69;;;8.50;60.55
4981;BME280;2507;50.392;7.482;2023-02-01T08:57:52;101329.81;;;8.42;61.31
4981;BME280;2507;50.392;7.482;2023-02-01T09:00:18;101330.50;;;8.46;61.05
4981;BME280;2507;50.392;7.482;2023-02-01T09:02:43;101330.75;;;8.58;60.44
4981;BME280;2507;50.392;7.482;2023-02-01T09:05:09;101337.59;;;8.61;60.53
4981;BME280;2507;50.392;7.482;2023-02-01T09:07:36;101350.47;;;8.65;60.27
4981;BME280;2507;50.392;7.482;2023-02-01T09:10:02;101348.31;;;8.56;60.27
4981;BME280;2507;50.392;7.482;2023-02-01T09:12:30;101352.28;;;8.80;60.08
4981;BME280;2507;50.392;7.482;2023-02-01T09:14:56;101360.75;;;8.85;59.67
4981;BME280;2507;50.392;7.482;2023-02-01T09:17:22;101354.81;;;8.82;59.23
4981;BME280;2507;50.392;7.482;2023-02-01T09:19:47;101357.50;;;8.80;59.30
4981;BME280;2507;50.392;7.482;2023-02-01T09:22:14;101369.81;;;8.78;59.45
4981;BME280;2507;50.392;7.482;2023-02-01T09:24:40;101372.28;;;8.81;59.26
4981;BME280;2507;50.392;7.482;2023-02-01T09:27:05;101374.81;;;9.00;58.78
4981;BME280;2507;50.392;7.482;2023-02-01T09:29:31;101375.84;;;9.13;58.47
4981;BME280;2507;50.392;7.482;2023-02-01T09:31:56;101378.56;;;9.11;58.32
4981;BME280;2507;50.392;7.482;2023-02-01T09:34:21;101373.69;;;9.21;57.82
4981;BME280;2507;50.392;7.482;2023-02-01T09:36:46;101358.41;;;9.29;57.85
4981;BME280;2507;50.392;7.482;2023-02-01T09:39:12;101370.00;;;9.41;57.54
4981;BME280;2507;50.392;7.482;2023-02-01T09:47:15;101350.28;;;9.18;58.21
4981;BME280;2507;50.392;7.482;2023-02-01T09:50:15;101349.34;;;9.19;58.11
4981;BME280;2507;50.392;7.482;2023-02-01T09:53:00;101352.84;;;9.35;57.67
4981;BME280;2507;50.392;7.482;2023-02-01T09:58:07;101357.50;;;9.46;57.95
4981;BME280;2507;50.392;7.482;2023-02-01T10:00:38;101356.25;;;9.53;57.24
4981;BME280;2507;50.392;7.482;2023-02-01T10:03:05;101356.66;;;9.61;57.17
4981;BME280;2507;50.392;7.482;2023-02-01T10:06:01;101348.91;;;9.59;57.23
4981;BME280;2507;50.392;7.482;2023-02-01T10:14:38;101352.88;;;9.51;57.23
4981;BME280;2507;50.392;7.482;2023-02-01T10:17:13;101344.00;;;9.69;56.78
4981;BME280;2507;50.392;7.482;2023-02-01T10:22:42;101344.94;;;9.52;57.17
4981;BME280;2507;50.392;7.482;2023-02-01T10:25:17;101341.13;;;9.58;57.10
4981;BME280;2507;50.392;7.482;2023-02-01T10:27:47;101329.97;;;9.70;56.85
4981;BME280;2507;50.392;7.482;2023-02-01T10:30:23;101333.00;;;9.62;57.01
4981;BME280;2507;50.392;7.482;2023-02-01T10:32:57;101333.25;;;9.89;56.67
4981;BME280;2507;50.392;7.482;2023-02-01T10:35:30;101330.88;;;10.00;56.47
4981;BME280;2507;50.392;7.482;2023-02-01T10:38:00;101334.69;;;10.10;56.11
4981;BME280;2507;50.392;7.482;2023-02-01T10:40:27;101328.25;;;10.00;56.30
4981;BME280;2507;50.392;7.482;2023-02-01T10:42:56;101329.28;;;9.97;55.97
4981;BME280;2507;50.392;7.482;2023-02-01T10:45:25;101331.78;;;9.99;56.21
4981;BME280;2507;50.392;7.482;2023-02-01T10:47:52;101330.69;;;10.03;55.79
4981;BME280;2507;50.392;7.482;2023-02-01T10:55:36;101329.06;;;9.71;56.85
4981;BME280;2507;50.392;7.482;2023-02-01T10:58:14;101326.91;;;9.77;56.76
4981;BME280;2507;50.392;7.482;2023-02-01T11:00:44;101321.09;;;9.57;56.82
4981;BME280;2507;50.392;7.482;2023-02-01T11:03:31;101313.31;;;9.55;57.50
4981;BME280;2507;50.392;7.482;2023-02-01T11:05:57;101311.22;;;9.62;57.25
4981;BME280;2507;50.392;7.482;2023-02-01T11:08:22;101309.69;;;9.58;57.27
4981;BME280;2507;50.392;7.482;2023-02-01T11:10:57;101316.84;;;9.70;56.90
4981;BME280;2507;50.392;7.482;2023-02-01T11:13:29;101308.38;;;9.80;57.35
4981;BME280;2507;50.392;7.482;2023-02-01T11:15:56;101317.44;;;9.75;57.42
4981;BME280;2507;50.392;7.482;2023-02-01T11:18:27;101323.53;;;9.91;56.98
4981;BME280;2507;50.392;7.482;2023-02-01T11:20:53;101311.50;;;10.02;56.53
4981;BME280;2507;50.392;7.482;2023-02-01T11:23:23;101314.44;;;9.96;56.57
4981;BME280;2507;50.392;7.482;2023-02-01T11:25:53;101315.06;;;9.86;56.96
4981;BME280;2507;50.392;7.482;2023-02-01T11:28:22;101310.25;;;9.94;57.28
4981;BME280;2507;50.392;7.482;2023-02-01T11:30:48;101306.44;;;9.84;57.19
4981;BME280;2507;50.392;7.482;2023-02-01T11:33:18;101305.84;;;9.94;57.29
4981;BME280;2507;50.392;7.482;2023-02-01T11:35:45;101299.22;;;10.03;57.28
4981;BME280;2507;50.392;7.482;2023-02-01T11:38:32;101291.19;;;10.06;56.50
4981;BME280;2507;50.392;7.482;2023-02-01T11:41:17;101281.78;;;10.02;56.16
4981;BME280;2507;50.392;7.482;2023-02-01T11:43:59;101288.56;;;10.06;56.47
4981;BME280;2507;50.392;7.482;2023-02-01T11:46:31;101288.56;;;10.21;56.08
4981;BME280;2507;50.392;7.482;2023-02-01T11:49:15;101287.09;;;10.46;55.72
4981;BME280;2507;50.392;7.482;2023-02-01T12:03:01;101281.19;;;10.42;55.85
4981;BME280;2507;50.392;7.482;2023-02-01T12:05:47;101274.72;;;10.34;55.96
4981;BME280;2507;50.392;7.482;2023-02-01T12:08:28;101274.47;;;10.52;55.24
4981;BME280;2507;50.392;7.482;2023-02-01T12:14:05;101268.88;;;10.86;55.13
4981;BME280;2507;50.392;7.482;2023-02-01T12:16:53;101269.59;;;10.46;55.14
4981;BME280;2507;50.392;7.482;2023-02-01T12:19:46;101265.28;;;10.45;54.81
4981;BME280;2507;50.392;7.482;2023-02-01T12:22:34;101250.56;;;10.43;54.54
4981;BME280;2507;50.392;7.482;2023-02-01T12:36:16;101231.84;;;10.63;53.98
4981;BME280;2507;50.392;7.482;2023-02-01T12:39:10;101228.25;;;10.50;53.71
4981;BME280;2507;50.392;7.482;2023-02-01T12:41:50;101219.84;;;10.45;54.10
4981;BME280;2507;50.392;7.482;2023-02-01T12:44:32;101222.25;;;10.48;54.27
4981;BME280;2507;50.392;7.482;2023-02-01T12:47:20;101215.81;;;10.53;53.56
4981;BME280;2507;50.392;7.482;2023-02-01T12:52:43;101216.34;;;10.58;53.53
4981;BME280;2507;50.392;7.482;2023-02-01T12:55:24;101204.34;;;10.40;54.09
4981;BME280;2507;50.392;7.482;2023-02-01T12:57:53;101199.13;;;10.54;53.72
4981;BME280;2507;50.392;7.482;2023-02-01T13:00:32;101196.41;;;10.42;54.22
4981;BME280;2507;50.392;7.482;2023-02-01T13:03:13;101190.22;;;10.57;53.01
4981;BME280;2507;50.392;7.482;2023-02-01T13:05:51;101207.19;;;10.79;53.19
4981;BME280;2507;50.392;7.482;2023-02-01T13:08:46;101208.75;;;10.82;52.48
4981;BME280;2507;50.392;7.482;2023-02-01T13:11:21;101211.03;;;10.74;52.19
4981;BME280;2507;50.392;7.482;2023-02-01T13:16:44;101207.75;;;10.56;51.98
4981;BME280;2507;50.392;7.482;2023-02-01T13:19:35;101221.34;;;10.63;52.84
4981;BME280;2507;50.392;7.482;2023-02-01T13:22:07;101211.78;;;10.48;52.82
4981;BME280;2507;50.392;7.482;2023-02-01T13:24:42;101217.31;;;10.57;53.15
4981;BME280;2507;50.392;7.482;2023-02-01T13:27:12;101208.59;;;10.43;52.47
4981;BME280;2507;50.392;7.482;2023-02-01T13:29:47;101209.59;;;10.40;53.04
4981;BME280;2507;50.392;7.482;2023-02-01T13:43:02;101194.25;;;10.34;52.27
4981;BME280;2507;50.392;7.482;2023-02-01T13:45:33;101188.91;;;10.21;52.50
4981;BME280;2507;50.392;7.482;2023-02-01T13:48:03;101192.09;;;10.26;52.40
4981;BME280;2507;50.392;7.482;2023-02-01T13:50:32;101177.97;;;10.29;52.72
4981;BME280;2507;50.392;7.482;2023-02-01T13:53:11;101174.66;;;10.25;52.12
4981;BME280;2507;50.392;7.482;2023-02-01T13:55:41;101179.44;;;10.33;52.43
4981;BME280;2507;50.392;7.482;2023-02-01T13:58:21;101177.47;;;10.37;52.53
4981;BME280;2507;50.392;7.482;2023-02-01T14:00:50;101168.38;;;10.42;52.90
4981;BME280;2507;50.392;7.482;2023-02-01T14:03:21;101158.34;;;10.63;52.12
4981;BME280;2507;50.392;7.482;2023-02-01T14:13:35;101163.59;;;10.35;52.61
4981;BME280;2507;50.392;7.482;2023-02-01T14:18:49;101167.38;;;10.31;52.80
4981;BME280;2507;50.392;7.482;2023-02-01T14:23:42;101178.50;;;10.34;52.76
4981;BME280;2507;50.392;7.482;2023-02-01T14:26:15;101164.63;;;10.46;52.63
4981;BME280;2507;50.392;7.482;2023-02-01T14:28:44;101177.19;;;10.41;52.99
4981;BME280;2507;50.392;7.482;2023-02-01T14:34:10;101151.72;;;10.43;52.96
4981;BME280;2507;50.392;7.482;2023-02-01T14:36:45;101166.25;;;10.49;52.47
4981;BME280;2507;50.392;7.482;2023-02-01T14:39:28;101166.50;;;10.30;53.55
4981;BME280;2507;50.392;7.482;2023-02-01T14:41:59;101179.88;;;10.11;53.42
4981;BME280;2507;50.392;7.482;2023-02-01T14:44:29;101174.00;;;10.22;53.90
4981;BME280;2507;50.392;7.482;2023-02-01T14:52:29;101171.63;;;10.03;54.65
4981;BME280;2507;50.392;7.482;2023-02-01T14:54:59;101180.72;;;10.12;54.75
4981;BME280;2507;50.392;7.482;2023-02-01T14:57:27;101187.69;;;10.27;54.91
4981;BME280;2507;50.392;7.482;2023-02-01T15:00:00;101181.88;;;10.36;54.10
4981;BME280;2507;50.392;7.482;2023-02-01T15:02:30;101191.81;;;10.45;54.14
4981;BME280;2507;50.392;7.482;2023-02-01T15:04:58;101192.00;;;10.42;53.59
4981;BME280;2507;50.392;7.482;2023-02-01T15:07:26;101175.22;;;10.31;53.69
4981;BME280;2507;50.392;7.482;2023-02-01T15:09:55;101193.59;;;10.31;54.39
4981;BME280;2507;50.392;7.482;2023-02-01T15:12:25;101192.00;;;10.42;53.59
4981;BME280;2507;50.392;7.482;2023-02-01T15:15:16;101191.16;;;10.42;54.16
4981;BME280;2507;50.392;7.482;2023-02-01T15:17:49;101195.00;;;10.36;54.07
4981;BME280;2507;50.392;7.482;2023-02-01T15:20:19;101189.38;;;10.42;54.00